createdAt,value
2019-02-22T00:05:15.786Z,7.50
2019-02-22T00:07:44.643Z,7.50
2019-02-22T00:10:15.257Z,7.50
2019-02-22T00:12:44.083Z,7.40
2019-02-22T00:15:12.978Z,7.40
2019-02-22T00:17:43.166Z,7.40
2019-02-22T00:20:11.948Z,7.40
2019-02-22T00:22:40.750Z,7.30
2019-02-22T00:25:09.501Z,7.30
2019-02-22T00:27:38.264Z,7.20
2019-02-22T00:30:08.092Z,7.20
2019-02-22T00:32:38.075Z,7.30
2019-02-22T00:35:07.640Z,7.30
2019-02-22T00:37:36.491Z,7.30
2019-02-22T00:40:05.981Z,7.40
2019-02-22T00:42:34.881Z,7.40
2019-02-22T00:45:04.752Z,7.50
2019-02-22T00:47:33.682Z,7.50
2019-02-22T00:50:02.521Z,7.50
2019-02-22T00:52:33.464Z,7.50
2019-02-22T00:55:04.737Z,7.50
2019-02-22T00:57:35.286Z,7.50
2019-02-22T01:00:05.358Z,7.50
2019-02-22T01:02:35.057Z,7.50
2019-02-22T01:05:37.194Z,7.50
2019-02-22T01:20:34.765Z,7.30
2019-02-22T01:26:49.074Z,7.10
2019-02-22T01:41:22.456Z,6.70
2019-02-22T01:43:51.745Z,6.60
2019-02-22T01:46:20.517Z,6.60
2019-02-22T01:48:49.341Z,6.60
2019-02-22T01:51:18.000Z,6.60
2019-02-22T01:53:46.951Z,6.60
2019-02-22T01:56:15.640Z,6.60
2019-02-22T01:58:48.641Z,6.60
2019-02-22T02:01:15.025Z,6.60
2019-02-22T02:03:43.705Z,6.60
2019-02-22T02:06:12.470Z,6.60
2019-02-22T02:08:41.135Z,6.60
2019-02-22T02:11:09.946Z,6.70
2019-02-22T02:13:38.536Z,6.70
2019-02-22T02:16:07.278Z,6.70
2019-02-22T02:18:36.084Z,6.70
2019-02-22T02:21:04.815Z,6.80
2019-02-22T02:26:33.126Z,6.90
2019-02-22T02:29:01.913Z,6.90
2019-02-22T02:31:30.819Z,7.00
2019-02-22T02:33:59.665Z,7.00
2019-02-22T02:36:28.597Z,7.00
2019-02-22T02:38:57.419Z,7.10
2019-02-22T02:41:26.227Z,7.10
2019-02-22T02:43:54.962Z,7.00
2019-02-22T02:46:23.625Z,7.00
2019-02-22T02:48:52.540Z,7.10
2019-02-22T02:51:21.221Z,7.10
2019-02-22T02:53:50.164Z,7.10
2019-02-22T02:56:18.941Z,7.10
2019-02-22T02:58:47.853Z,7.10
2019-02-22T03:01:16.710Z,7.10
2019-02-22T03:03:45.354Z,7.10
2019-02-22T03:06:19.069Z,7.10
2019-02-22T03:08:47.965Z,7.20
2019-02-22T03:11:20.657Z,7.20
2019-02-22T03:13:47.230Z,7.20
2019-02-22T03:16:16.752Z,7.20
2019-02-22T03:18:45.405Z,7.20
2019-02-22T03:21:14.287Z,7.30
2019-02-22T03:23:43.090Z,7.30
2019-02-22T03:26:11.918Z,7.30
2019-02-22T03:28:40.704Z,7.30
2019-02-22T03:31:09.496Z,7.30
2019-02-22T03:33:38.306Z,7.30
2019-02-22T03:36:07.076Z,7.30
2019-02-22T03:38:35.987Z,7.30
2019-02-22T03:41:05.216Z,7.30
2019-02-22T03:43:34.019Z,7.40
2019-02-22T03:46:02.954Z,7.40
2019-02-22T03:48:31.838Z,7.30
2019-02-22T03:51:00.591Z,7.40
2019-02-22T03:53:31.008Z,7.40
2019-02-22T03:56:00.218Z,7.30
2019-02-22T03:58:28.943Z,7.40
2019-02-22T04:00:57.983Z,7.40
2019-02-22T04:03:29.687Z,7.30
2019-02-22T04:05:58.628Z,7.30
2019-02-22T04:08:27.283Z,7.30
2019-02-22T04:10:56.033Z,7.30
2019-02-22T04:13:52.369Z,7.40
2019-02-22T04:16:21.329Z,7.40
2019-02-22T04:18:50.186Z,7.20
2019-02-22T04:21:19.073Z,7.10
2019-02-22T04:23:47.845Z,7.00
2019-02-22T04:26:16.644Z,7.00
2019-02-22T04:28:45.346Z,6.90
2019-02-22T04:34:19.834Z,6.90
2019-02-22T04:36:48.897Z,6.90
2019-02-22T04:39:17.641Z,6.90
2019-02-22T04:41:57.763Z,6.90
2019-02-22T04:44:16.990Z,6.90
2019-02-22T04:46:45.851Z,6.90
2019-02-22T04:49:14.587Z,7.00
2019-02-22T04:51:43.357Z,6.90
2019-02-22T04:54:12.279Z,7.00
2019-02-22T04:56:41.046Z,6.90
2019-02-22T04:59:09.829Z,6.90
2019-02-22T05:01:38.673Z,6.90
2019-02-22T05:04:07.301Z,6.90
2019-02-22T05:06:36.179Z,6.80
2019-02-22T05:09:05.430Z,6.80
2019-02-22T05:11:34.163Z,6.70
2019-02-22T05:19:25.525Z,6.70
2019-02-22T05:22:05.678Z,6.60
2019-02-22T05:24:35.073Z,6.60
2019-02-22T05:27:03.802Z,6.60
2019-02-22T05:29:33.542Z,6.50
2019-02-22T05:35:02.188Z,6.50
2019-02-22T05:37:31.515Z,6.40
2019-02-22T05:40:00.557Z,6.40
2019-02-22T05:42:29.233Z,6.40
2019-02-22T05:44:58.012Z,6.30
2019-02-22T05:47:26.853Z,6.30
2019-02-22T05:49:55.536Z,6.20
2019-02-22T05:52:24.375Z,6.20
2019-02-22T05:54:53.249Z,6.20
2019-02-22T05:59:58.570Z,6.10
2019-02-22T06:02:37.761Z,6.10
2019-02-22T06:11:15.330Z,6.00
2019-02-22T06:13:46.174Z,5.90
2019-02-22T06:16:18.246Z,5.90
2019-02-22T06:21:50.993Z,5.90
2019-02-22T06:24:20.042Z,5.90
2019-02-22T06:26:49.002Z,5.90
2019-02-22T06:29:17.754Z,6.00
2019-02-22T06:31:46.685Z,5.90
2019-02-22T06:34:15.822Z,6.00
2019-02-22T06:36:44.760Z,6.00
2019-02-22T06:39:17.499Z,6.00
2019-02-22T06:41:46.517Z,6.00
2019-02-22T06:44:15.322Z,6.00
2019-02-22T07:05:55.599Z,5.90
2019-02-22T07:45:51.566Z,5.90
2019-02-22T07:48:32.013Z,5.90
2019-02-22T07:51:00.849Z,5.90
2019-02-22T07:53:32.398Z,5.90
2019-02-22T07:56:01.102Z,6.00
2019-02-22T07:58:30.920Z,6.00
2019-02-22T08:00:59.813Z,6.00
2019-02-22T08:03:28.744Z,6.00
2019-02-22T08:05:57.569Z,6.00
2019-02-22T08:08:26.419Z,6.10
2019-02-22T08:10:55.207Z,6.00
2019-02-22T08:13:23.948Z,6.00
2019-02-22T08:15:52.852Z,6.00
2019-02-22T08:18:21.707Z,6.10
2019-02-22T08:20:51.500Z,6.10
2019-02-22T08:23:20.321Z,6.10
2019-02-22T08:25:49.302Z,6.10
2019-02-22T08:28:19.498Z,6.10
2019-02-22T08:30:49.537Z,6.10
2019-02-22T08:33:18.290Z,6.20
2019-02-22T08:35:47.166Z,6.20
2019-02-22T08:38:16.076Z,6.20
2019-02-22T08:40:44.925Z,6.20
2019-02-22T08:43:13.668Z,6.20
2019-02-22T08:45:42.416Z,6.20
2019-02-22T08:48:11.256Z,6.30
2019-02-22T08:50:40.073Z,6.30
2019-02-22T08:53:08.825Z,6.30
2019-02-22T08:55:37.689Z,6.30
2019-02-22T08:58:06.509Z,6.30
2019-02-22T09:00:35.231Z,6.30
2019-02-22T09:03:03.950Z,6.30
2019-02-22T09:05:32.800Z,6.30
2019-02-22T09:08:01.587Z,6.30
2019-02-22T09:10:30.472Z,6.30
2019-02-22T09:12:59.245Z,6.30
2019-02-22T09:15:28.113Z,6.40
2019-02-22T09:17:56.942Z,6.40
2019-02-22T09:20:25.846Z,6.40
2019-02-22T09:22:57.370Z,6.50
2019-02-22T09:25:26.249Z,6.60
2019-02-22T09:27:54.893Z,6.60
2019-02-22T09:30:23.873Z,6.70
2019-02-22T09:32:52.639Z,6.70
2019-02-22T09:35:21.511Z,6.70
2019-02-22T09:37:50.348Z,6.80
2019-02-22T09:40:19.788Z,6.80
2019-02-22T09:42:48.691Z,6.80
2019-02-22T09:45:17.450Z,6.80
2019-02-22T09:47:48.102Z,6.80
2019-02-22T09:50:17.181Z,6.70
2019-02-22T09:52:46.225Z,6.70
2019-02-22T09:55:15.089Z,6.70
2019-02-22T09:57:44.307Z,6.70
2019-02-22T10:00:14.463Z,6.70
2019-02-22T10:02:44.861Z,6.70
2019-02-22T10:05:14.023Z,6.80
2019-02-22T10:07:42.843Z,6.80
2019-02-22T10:10:12.183Z,6.70
2019-02-22T10:12:40.913Z,6.70
2019-02-22T10:15:10.653Z,6.60
2019-02-22T10:17:39.400Z,6.70
2019-02-22T10:20:11.343Z,6.70
2019-02-22T10:22:40.197Z,6.70
2019-02-22T10:25:09.148Z,6.80
2019-02-22T10:27:37.845Z,6.90
2019-02-22T10:30:11.989Z,7.10
2019-02-22T10:32:40.758Z,7.20
2019-02-22T10:35:09.523Z,7.30
2019-02-22T10:37:38.349Z,7.40
2019-02-22T10:40:09.020Z,7.60
2019-02-22T10:42:47.492Z,7.70
2019-02-22T10:45:16.315Z,7.80
2019-02-22T10:47:45.142Z,8.00
2019-02-22T10:50:13.877Z,8.20
2019-02-22T10:55:38.424Z,8.50
2019-02-22T10:58:07.451Z,8.60
2019-02-22T11:00:36.315Z,8.70
2019-02-22T11:03:04.959Z,8.90
2019-02-22T11:05:33.829Z,9.00
2019-02-22T11:08:02.625Z,9.10
2019-02-22T11:10:40.833Z,9.20
2019-02-22T11:25:43.639Z,10.20
2019-02-22T11:28:12.509Z,9.90
2019-02-22T11:30:41.436Z,9.70
2019-02-22T11:33:10.068Z,9.40
2019-02-22T11:54:20.976Z,10.10
2019-02-22T11:56:49.487Z,10.60
2019-02-22T11:59:18.072Z,11.20
2019-02-22T12:01:47.133Z,11.90
2019-02-22T12:04:15.663Z,12.70
2019-02-22T12:06:44.159Z,13.70
2019-02-22T12:09:12.845Z,14.90
2019-02-22T12:11:41.471Z,15.20
2019-02-22T12:14:10.103Z,15.30
2019-02-22T12:16:38.645Z,15.80
2019-02-22T12:19:07.375Z,15.70
2019-02-22T12:21:35.865Z,16.30
2019-02-22T12:24:04.411Z,16.90
2019-02-22T12:26:32.926Z,17.00
2019-02-22T12:29:01.397Z,16.50
2019-02-22T12:31:29.946Z,15.20
2019-02-22T12:33:58.485Z,13.90
2019-02-22T12:36:28.411Z,12.60
2019-02-22T12:39:02.513Z,11.60
2019-02-22T12:54:08.027Z,10.40
2019-02-22T12:56:57.540Z,10.30
2019-02-22T12:59:38.438Z,10.30
2019-02-22T13:02:10.374Z,10.30
2019-02-22T13:04:56.662Z,10.30
2019-02-22T13:07:34.522Z,10.60
2019-02-22T13:14:45.513Z,10.50
2019-02-22T13:21:08.544Z,10.10
2019-02-22T13:31:29.405Z,10.00
2019-02-22T13:33:49.226Z,9.90
2019-02-22T13:36:17.810Z,11.70
2019-02-22T13:38:46.340Z,13.90
2019-02-22T13:41:16.636Z,15.60
2019-02-22T13:43:45.158Z,17.00
2019-02-22T13:46:13.711Z,18.40
2019-02-22T13:48:42.339Z,19.70
2019-02-22T13:51:10.819Z,21.10
2019-02-22T13:53:39.371Z,22.20
2019-02-22T13:56:07.935Z,22.70
2019-02-22T13:58:36.450Z,21.20
2019-02-22T14:01:05.028Z,19.00
2019-02-22T14:03:33.917Z,16.90
2019-02-22T14:06:02.935Z,15.50
2019-02-22T14:08:31.643Z,14.20
2019-02-22T14:11:00.132Z,13.50
2019-02-22T14:13:28.636Z,13.00
2019-02-22T14:15:57.097Z,12.90
2019-02-22T14:18:25.662Z,12.70
2019-02-22T14:20:54.117Z,12.60
2019-02-22T14:23:22.627Z,12.50
2019-02-22T14:25:51.096Z,12.20
2019-02-22T14:28:22.168Z,12.10
2019-02-22T14:30:52.570Z,11.80
2019-02-22T14:33:21.563Z,11.60
2019-02-22T14:36:03.551Z,11.40
2019-02-22T14:38:39.273Z,10.90
2019-02-22T14:45:12.984Z,10.40
2019-02-22T15:03:37.348Z,10.30
2019-02-22T15:08:55.768Z,10.50
2019-02-22T15:18:07.501Z,10.80
2019-02-22T15:23:45.603Z,10.70
2019-02-22T15:36:16.588Z,10.50
2019-02-22T15:38:50.603Z,10.50
2019-02-22T15:41:25.619Z,10.50
2019-02-22T15:44:13.425Z,10.50
2019-02-22T15:58:53.930Z,9.80
2019-02-22T16:01:23.634Z,9.80
2019-02-22T16:12:07.180Z,9.50
2019-02-22T16:14:38.527Z,9.40
2019-02-22T16:31:24.013Z,9.00
2019-02-22T16:33:53.140Z,8.90
2019-02-22T16:36:21.736Z,8.90
2019-02-22T16:49:49.882Z,8.60
2019-02-22T16:52:26.367Z,8.50
2019-02-22T16:58:25.590Z,8.50
2019-02-22T17:07:38.767Z,8.20
2019-02-22T17:10:09.680Z,8.20
2019-02-22T17:12:38.502Z,8.10
2019-02-22T17:15:11.793Z,8.00
2019-02-22T17:17:40.546Z,8.00
2019-02-22T17:20:11.970Z,8.00
2019-02-22T17:22:40.819Z,7.90
2019-02-22T17:25:12.866Z,7.70
2019-02-22T17:27:41.511Z,7.70
2019-02-22T17:30:12.738Z,7.60
2019-02-22T17:32:41.325Z,7.60
2019-02-22T17:35:10.244Z,7.70
2019-02-22T17:37:52.984Z,7.60
2019-02-22T17:40:26.729Z,7.60
2019-02-22T17:42:55.272Z,7.60
2019-02-22T17:45:23.835Z,7.60
2019-02-22T17:47:52.421Z,7.70
2019-02-22T17:50:20.990Z,7.70
2019-02-22T17:52:49.612Z,7.70
2019-02-22T17:55:18.165Z,7.70
2019-02-22T17:57:46.689Z,7.80
2019-02-22T18:00:18.003Z,7.70
2019-02-22T18:02:46.590Z,7.70
2019-02-22T18:05:15.183Z,7.70
2019-02-22T18:07:43.719Z,7.70
2019-02-22T18:10:12.473Z,7.60
2019-02-22T18:12:41.072Z,7.60
2019-02-22T18:15:11.312Z,7.50
2019-02-22T18:17:40.933Z,7.40
2019-02-22T18:20:09.497Z,7.40
2019-02-22T18:22:38.076Z,7.20
2019-02-22T18:25:08.475Z,7.10
2019-02-22T18:27:37.095Z,7.10
2019-02-22T18:30:11.473Z,6.90
2019-02-22T18:32:40.109Z,6.80
2019-02-22T18:35:08.978Z,6.70
2019-02-22T18:37:37.544Z,6.60
2019-02-22T18:40:09.292Z,6.50
2019-02-22T18:42:37.821Z,6.50
2019-02-22T18:45:07.859Z,6.40
2019-02-22T18:47:36.416Z,6.40
2019-02-22T18:50:07.534Z,6.20
2019-02-22T18:52:36.126Z,6.10
2019-02-22T18:55:06.562Z,6.00
2019-02-22T18:57:35.153Z,5.80
2019-02-22T19:00:07.547Z,5.70
2019-02-22T19:02:35.529Z,5.60
2019-02-22T19:05:04.782Z,5.50
2019-02-22T19:07:33.346Z,5.30
2019-02-22T19:10:01.880Z,5.20
2019-02-22T19:12:30.577Z,5.20
2019-02-22T19:14:59.185Z,5.10
2019-02-22T19:17:30.340Z,5.00
2019-02-22T19:19:58.081Z,4.90
2019-02-22T19:22:26.745Z,4.80
2019-02-22T19:24:55.385Z,4.80
2019-02-22T19:27:23.991Z,4.70
2019-02-22T19:29:52.521Z,4.70
2019-02-22T19:32:21.038Z,4.60
2019-02-22T19:34:49.517Z,4.50
2019-02-22T19:37:17.998Z,4.60
2019-02-22T19:39:46.516Z,4.50
2019-02-22T19:42:15.157Z,4.50
2019-02-22T19:44:44.062Z,4.50
2019-02-22T19:47:12.588Z,4.50
2019-02-22T19:49:41.125Z,4.50
2019-02-22T19:52:09.688Z,4.50
2019-02-22T19:54:38.359Z,4.40
2019-02-22T19:57:06.912Z,4.40
2019-02-22T19:59:35.489Z,4.40
2019-02-22T20:02:04.033Z,4.30
2019-02-22T20:04:32.602Z,4.20
2019-02-22T20:07:01.095Z,4.20
2019-02-22T20:09:29.703Z,4.30
2019-02-22T20:11:58.315Z,4.30
2019-02-22T20:14:26.908Z,4.40
2019-02-22T20:16:55.457Z,4.50
2019-02-22T20:19:24.002Z,4.50
2019-02-22T20:21:52.591Z,4.60
2019-02-22T20:24:21.107Z,4.60
2019-02-22T20:26:49.669Z,4.60
2019-02-22T20:29:18.181Z,4.70
2019-02-22T20:31:46.716Z,4.80
2019-02-22T20:34:15.217Z,4.80
2019-02-22T20:36:44.232Z,4.90
2019-02-22T20:39:12.995Z,5.00
2019-02-22T20:41:41.528Z,5.00
2019-02-22T20:44:10.002Z,5.10
2019-02-22T20:46:38.512Z,5.00
2019-02-22T20:49:06.991Z,5.00
2019-02-22T20:51:35.549Z,5.10
2019-02-22T20:54:04.018Z,5.20
2019-02-22T20:56:32.588Z,5.30
2019-02-22T20:59:01.143Z,5.30
2019-02-22T21:01:29.644Z,5.30
2019-02-22T21:03:58.302Z,5.30
2019-02-22T21:06:26.957Z,5.30
2019-02-22T21:08:55.577Z,5.40
2019-02-22T21:11:24.137Z,5.40
2019-02-22T21:13:52.717Z,5.40
2019-02-22T21:16:21.218Z,5.40
2019-02-22T21:18:49.772Z,5.40
2019-02-22T21:21:18.304Z,5.40
2019-02-22T21:23:46.888Z,5.30
2019-02-22T21:26:15.374Z,5.40
2019-02-22T21:28:43.949Z,5.40
2019-02-22T21:31:12.428Z,5.40
2019-02-22T21:33:40.961Z,5.40
2019-02-22T21:36:10.547Z,5.40
2019-02-22T21:38:39.141Z,5.40
2019-02-22T21:41:07.626Z,5.40
2019-02-22T21:43:36.137Z,5.40
2019-02-22T21:46:04.655Z,5.40
2019-02-22T21:48:33.188Z,5.40
2019-02-22T21:51:01.698Z,5.40
2019-02-22T21:53:30.276Z,5.40
2019-02-22T21:55:58.815Z,5.40
2019-02-22T21:58:27.427Z,5.40
2019-02-22T22:00:56.097Z,5.40
2019-02-22T22:03:24.694Z,5.30
2019-02-22T22:05:53.293Z,5.30
2019-02-22T22:08:21.848Z,5.30
2019-02-22T22:10:50.463Z,5.30
2019-02-22T22:13:19.123Z,5.30
2019-02-22T22:15:47.725Z,5.30
2019-02-22T22:18:16.424Z,5.30
2019-02-22T22:20:44.945Z,5.30
2019-02-22T22:23:13.523Z,5.30
2019-02-22T22:25:42.140Z,5.20
2019-02-22T22:28:10.607Z,5.20
2019-02-22T22:30:39.077Z,5.10
2019-02-22T22:33:07.727Z,5.10
2019-02-22T22:35:36.372Z,5.10
2019-02-22T22:38:04.921Z,5.10
2019-02-22T22:40:33.456Z,5.00
2019-02-22T22:43:02.076Z,5.00
2019-02-22T22:45:30.703Z,5.00
2019-02-22T22:47:59.278Z,5.00
2019-02-22T22:50:27.760Z,5.10
2019-02-22T22:52:56.306Z,5.00
2019-02-22T22:55:24.793Z,4.90
2019-02-22T22:57:53.401Z,4.90
2019-02-22T23:00:29.611Z,4.80
2019-02-22T23:02:58.341Z,4.70
2019-02-22T23:05:26.867Z,4.70
2019-02-22T23:07:55.427Z,4.60
2019-02-22T23:10:23.948Z,4.60
2019-02-22T23:12:52.564Z,4.70
2019-02-22T23:15:21.096Z,4.70
2019-02-22T23:17:49.712Z,4.70
2019-02-22T23:20:18.348Z,4.70
2019-02-22T23:22:46.920Z,4.70
2019-02-22T23:25:15.424Z,4.60
2019-02-22T23:27:44.035Z,4.60
2019-02-22T23:30:12.653Z,4.60
2019-02-22T23:32:41.312Z,4.60
2019-02-22T23:35:09.895Z,4.60
2019-02-22T23:37:38.385Z,4.50
2019-02-22T23:40:07.137Z,4.50
2019-02-22T23:42:35.656Z,4.40
2019-02-22T23:45:04.573Z,4.40
2019-02-22T23:47:33.143Z,4.30
2019-02-22T23:50:01.635Z,4.30
2019-02-22T23:52:30.114Z,4.20
2019-02-22T23:54:58.621Z,4.10
2019-02-22T23:57:27.094Z,4.10
2019-02-22T23:59:55.600Z,4.00
